sensor_id;sensor_type;location;lat;lon;timestamp;pressure;altitude;pressure_sealevel;temperature;humidity
46756;BME280;32506;52.826;-1.192;2022-10-16T00:01:12;99452.41;;;11.79;59.09
46756;BME280;32506;52.826;-1.192;2022-10-16T00:03:39;99445.19;;;11.80;59.14
46756;BME280;32506;52.826;-1.192;2022-10-16T00:06:06;99449.72;;;11.79;58.58
46756;BME280;32506;52.826;-1.192;2022-10-16T00:08:32;99450.78;;;11.78;58.55
46756;BME280;32506;52.826;-1.192;2022-10-16T00:11:03;99455.31;;;11.78;58.60
46756;BME280;32506;52.826;-1.192;2022-10-16T00:13:31;99453.72;;;11.77;58.33
46756;BME280;32506;52.826;-1.192;2022-10-16T00:15:57;99453.97;;;11.75;58.16
46756;BME280;32506;52.826;-1.192;2022-10-16T00:18:24;99462.78;;;11.75;58.02
46756;BME280;32506;52.826;-1.192;2022-10-16T00:20:50;99463.03;;;11.74;58.18
46756;BME280;32506;52.826;-1.192;2022-10-16T00:23:15;99465.72;;;11.74;58.08
46756;BME280;32506;52.826;-1.192;2022-10-16T00:25:41;99466.78;;;11.73;58.05
46756;BME280;32506;52.826;-1.192;2022-10-16T00:28:06;99463.28;;;11.72;57.58
46756;BME280;32506;52.826;-1.192;2022-10-16T00:30:32;99460.84;;;11.71;57.84
46756;BME280;32506;52.826;-1.192;2022-10-16T00:32:57;99457.63;;;11.69;57.74
46756;BME280;32506;52.826;-1.192;2022-10-16T00:35:23;99456.81;;;11.68;58.09
46756;BME280;32506;52.826;-1.192;2022-10-16T00:37:48;99458.66;;;11.68;58.35
46756;BME280;32506;52.826;-1.192;2022-10-16T00:40:14;99458.91;;;11.66;58.59
46756;BME280;32506;52.826;-1.192;2022-10-16T00:42:39;99480.34;;;11.66;57.83
46756;BME280;32506;52.826;-1.192;2022-10-16T00:45:05;99486.97;;;11.64;58.12
46756;BME280;32506;52.826;-1.192;2022-10-16T00:47:36;99476.28;;;11.64;58.35
46756;BME280;32506;52.826;-1.192;2022-10-16T00:50:13;99486.19;;;11.63;58.49
46756;BME280;32506;52.826;-1.192;2022-10-16T00:52:43;99480.84;;;11.63;58.40
46756;BME280;32506;52.826;-1.192;2022-10-16T00:55:09;99489.13;;;11.62;58.30
46756;BME280;32506;52.826;-1.192;2022-10-16T00:57:36;99485.59;;;11.61;58.72
46756;BME280;32506;52.826;-1.192;2022-10-16T01:00:04;99500.03;;;11.60;58.70
46756;BME280;32506;52.826;-1.192;2022-10-16T01:02:30;99513.66;;;11.58;58.79
46756;BME280;32506;52.826;-1.192;2022-10-16T01:04:56;99521.69;;;11.58;58.79
46756;BME280;32506;52.826;-1.192;2022-10-16T01:10:26;99538.00;;;11.57;58.55
46756;BME280;32506;52.826;-1.192;2022-10-16T01:13:02;99539.03;;;11.56;58.78
46756;BME280;32506;52.826;-1.192;2022-10-16T01:15:34;99545.47;;;11.55;58.65
46756;BME280;32506;52.826;-1.192;2022-10-16T01:20:42;99545.69;;;11.53;58.74
46756;BME280;32506;52.826;-1.192;2022-10-16T01:24:13;99555.84;;;11.51;58.98
46756;BME280;32506;52.826;-1.192;2022-10-16T01:26:18;99558.53;;;11.51;58.77
46756;BME280;32506;52.826;-1.192;2022-10-16T01:28:51;99563.88;;;11.51;59.20
46756;BME280;32506;52.826;-1.192;2022-10-16T01:31:20;99570.28;;;11.50;59.11
46756;BME280;32506;52.826;-1.192;2022-10-16T01:33:53;99585.53;;;11.50;59.31
46756;BME280;32506;52.826;-1.192;2022-10-16T01:36:26;99588.22;;;11.50;59.24
46756;BME280;32506;52.826;-1.192;2022-10-16T01:38:56;99590.06;;;11.49;59.08
46756;BME280;32506;52.826;-1.192;2022-10-16T01:41:32;99592.50;;;11.51;59.10
46756;BME280;32506;52.826;-1.192;2022-10-16T01:44:04;99608.56;;;11.51;59.39
46756;BME280;32506;52.826;-1.192;2022-10-16T01:46:32;99598.09;;;11.49;59.23
46756;BME280;32506;52.826;-1.192;2022-10-16T01:49:00;99602.38;;;11.50;59.41
46756;BME280;32506;52.826;-1.192;2022-10-16T01:51:27;99597.03;;;11.50;59.92
46756;BME280;32506;52.826;-1.192;2022-10-16T01:53:55;99608.56;;;11.51;60.00
46756;BME280;32506;52.826;-1.192;2022-10-16T01:56:24;99610.41;;;11.50;60.05
46756;BME280;32506;52.826;-1.192;2022-10-16T01:59:09;99620.06;;;11.51;60.10
46756;BME280;32506;52.826;-1.192;2022-10-16T02:01:38;99610.66;;;11.49;60.36
46756;BME280;32506;52.826;-1.192;2022-10-16T02:04:17;99601.59;;;11.50;60.53
46756;BME280;32506;52.826;-1.192;2022-10-16T02:06:44;99582.03;;;11.49;60.62
46756;BME280;32506;52.826;-1.192;2022-10-16T02:09:10;99580.66;;;11.47;60.57
46756;BME280;32506;52.826;-1.192;2022-10-16T02:11:36;99597.53;;;11.47;61.09
46756;BME280;32506;52.826;-1.192;2022-10-16T02:14:03;99603.94;;;11.46;60.54
46756;BME280;32506;52.826;-1.192;2022-10-16T02:16:40;99598.56;;;11.46;60.85
46756;BME280;32506;52.826;-1.192;2022-10-16T02:19:07;99600.69;;;11.44;61.08
46756;BME280;32506;52.826;-1.192;2022-10-16T02:22:05;99608.72;;;11.44;61.25
46756;BME280;32506;52.826;-1.192;2022-10-16T02:24:39;99615.38;;;11.41;61.25
46756;BME280;32506;52.826;-1.192;2022-10-16T02:27:18;99622.81;;;11.39;61.41
46756;BME280;32506;52.826;-1.192;2022-10-16T02:29:50;99620.38;;;11.38;61.46
46756;BME280;32506;52.826;-1.192;2022-10-16T02:32:21;99632.97;;;11.37;61.25
46756;BME280;32506;52.826;-1.192;2022-10-16T02:34:50;99636.69;;;11.36;61.27
46756;BME280;32506;52.826;-1.192;2022-10-16T02:37:17;99628.06;;;11.34;61.42
46756;BME280;32506;52.826;-1.192;2022-10-16T02:39:43;99635.53;;;11.32;61.50
46756;BME280;32506;52.826;-1.192;2022-10-16T02:42:13;99642.72;;;11.32;61.25
46756;BME280;32506;52.826;-1.192;2022-10-16T02:44:39;99645.09;;;11.28;61.32
46756;BME280;32506;52.826;-1.192;2022-10-16T02:47:05;99646.13;;;11.27;60.97
46756;BME280;32506;52.826;-1.192;2022-10-16T02:49:30;99649.06;;;11.25;61.08
46756;BME280;32506;52.826;-1.192;2022-10-16T02:51:56;99651.97;;;11.24;61.19
46756;BME280;32506;52.826;-1.192;2022-10-16T02:54:21;99658.63;;;11.21;61.31
46756;BME280;32506;52.826;-1.192;2022-10-16T02:56:47;99657.00;;;11.20;61.30
46756;BME280;32506;52.826;-1.192;2022-10-16T02:59:12;99662.00;;;11.17;61.44
46756;BME280;32506;52.826;-1.192;2022-10-16T03:01:38;99660.34;;;11.16;61.45
46756;BME280;32506;52.826;-1.192;2022-10-16T03:04:03;99667.00;;;11.13;61.68
46756;BME280;32506;52.826;-1.192;2022-10-16T03:06:29;99675.50;;;11.10;61.50
46756;BME280;32506;52.826;-1.192;2022-10-16T03:08:54;99672.84;;;11.10;61.90
46756;BME280;32506;52.826;-1.192;2022-10-16T03:11:20;99676.53;;;11.09;61.46
46756;BME280;32506;52.826;-1.192;2022-10-16T03:13:45;99677.03;;;11.06;61.69
46756;BME280;32506;52.826;-1.192;2022-10-16T03:16:11;99681.81;;;11.04;61.64
46756;BME280;32506;52.826;-1.192;2022-10-16T03:18:36;99692.72;;;11.02;61.66
46756;BME280;32506;52.826;-1.192;2022-10-16T03:21:02;99692.16;;;11.00;61.35
46756;BME280;32506;52.826;-1.192;2022-10-16T03:23:28;99708.44;;;10.99;61.43
46756;BME280;32506;52.826;-1.192;2022-10-16T03:25:54;99700.69;;;10.97;61.36
46756;BME280;32506;52.826;-1.192;2022-10-16T03:28:19;99704.38;;;10.96;61.73
46756;BME280;32506;52.826;-1.192;2022-10-16T03:30:45;99711.81;;;10.94;60.94
46756;BME280;32506;52.826;-1.192;2022-10-16T03:33:10;99718.44;;;10.91;61.40
46756;BME280;32506;52.826;-1.192;2022-10-16T03:35:36;99724.03;;;10.90;60.79
46756;BME280;32506;52.826;-1.192;2022-10-16T03:38:01;99726.94;;;10.88;61.36
46756;BME280;32506;52.826;-1.192;2022-10-16T03:40:27;99733.56;;;10.86;61.14
46756;BME280;32506;52.826;-1.192;2022-10-16T03:42:52;99737.28;;;10.85;61.26
46756;BME280;32506;52.826;-1.192;2022-10-16T03:45:20;99745.53;;;10.83;60.89
46756;BME280;32506;52.826;-1.192;2022-10-16T03:47:46;99746.81;;;10.81;61.00
46756;BME280;32506;52.826;-1.192;2022-10-16T03:50:12;99748.09;;;10.78;61.11
46756;BME280;32506;52.826;-1.192;2022-10-16T03:52:38;99758.00;;;10.78;61.35
46756;BME280;32506;52.826;-1.192;2022-10-16T03:55:03;99760.06;;;10.75;61.13
46756;BME280;32506;52.826;-1.192;2022-10-16T03:57:29;99765.66;;;10.74;61.02
46756;BME280;32506;52.826;-1.192;2022-10-16T03:59:54;99787.28;;;10.72;61.01
46756;BME280;32506;52.826;-1.192;2022-10-16T04:02:20;99799.25;;;10.70;61.05
46756;BME280;32506;52.826;-1.192;2022-10-16T04:04:45;99796.81;;;10.68;60.80
46756;BME280;32506;52.826;-1.192;2022-10-16T04:07:11;99805.88;;;10.67;60.98
46756;BME280;32506;52.826;-1.192;2022-10-16T04:09:36;99808.22;;;10.64;60.65
46756;BME280;32506;52.826;-1.192;2022-10-16T04:12:02;99819.94;;;10.63;60.73
46756;BME280;32506;52.826;-1.192;2022-10-16T04:14:27;99822.84;;;10.61;60.56
46756;BME280;32506;52.826;-1.192;2022-10-16T04:16:53;99820.41;;;10.60;60.68
46756;BME280;32506;52.826;-1.192;2022-10-16T04:19:18;99829.47;;;10.58;60.84
46756;BME280;32506;52.826;-1.192;2022-10-16T04:21:44;99823.53;;;10.56;60.82
46756;BME280;32506;52.826;-1.192;2022-10-16T04:24:09;99833.88;;;10.53;60.54
46756;BME280;32506;52.826;-1.192;2022-10-16T04:26:36;99838.16;;;10.54;60.79
46756;BME280;32506;52.826;-1.192;2022-10-16T04:29:02;99834.31;;;10.50;60.89
46756;BME280;32506;52.826;-1.192;2022-10-16T04:31:28;99848.50;;;10.50;60.96
46756;BME280;32506;52.826;-1.192;2022-10-16T04:33:53;99850.59;;;10.48;60.94
46756;BME280;32506;52.826;-1.192;2022-10-16T04:36:19;99848.38;;;10.45;60.90
46756;BME280;32506;52.826;-1.192;2022-10-16T04:38:44;99861.72;;;10.45;60.80
46756;BME280;32506;52.826;-1.192;2022-10-16T04:41:09;99868.13;;;10.44;61.15
46756;BME280;32506;52.826;-1.192;2022-10-16T04:43:35;99882.50;;;10.43;60.88
46756;BME280;32506;52.826;-1.192;2022-10-16T04:46:00;99886.25;;;10.42;61.09
46756;BME280;32506;52.826;-1.192;2022-10-16T04:48:27;99899.81;;;10.40;60.92
46756;BME280;32506;52.826;-1.192;2022-10-16T04:50:52;99891.78;;;10.40;61.42
46756;BME280;32506;52.826;-1.192;2022-10-16T04:53:17;99895.72;;;10.38;61.29
46756;BME280;32506;52.826;-1.192;2022-10-16T04:55:43;99901.31;;;10.36;61.45
46756;BME280;32506;52.826;-1.192;2022-10-16T04:58:08;99909.56;;;10.35;61.39
46756;BME280;32506;52.826;-1.192;2022-10-16T05:00:34;99921.25;;;10.34;61.10
46756;BME280;32506;52.826;-1.192;2022-10-16T05:03:00;99933.00;;;10.33;61.12
46756;BME280;32506;52.826;-1.192;2022-10-16T05:05:26;99934.03;;;10.32;60.91
46756;BME280;32506;52.826;-1.192;2022-10-16T05:07:53;99939.59;;;10.30;61.36
46756;BME280;32506;52.826;-1.192;2022-10-16T05:10:19;99950.28;;;10.30;61.55
46756;BME280;32506;52.826;-1.192;2022-10-16T05:12:45;99961.41;;;10.27;61.44
46756;BME280;32506;52.826;-1.192;2022-10-16T05:15:10;99958.16;;;10.25;61.46
46756;BME280;32506;52.826;-1.192;2022-10-16T05:17:36;99968.00;;;10.24;61.55
46756;BME280;32506;52.826;-1.192;2022-10-16T05:20:02;99965.56;;;10.23;61.72
46756;BME280;32506;52.826;-1.192;2022-10-16T05:22:28;99974.63;;;10.22;61.38
46756;BME280;32506;52.826;-1.192;2022-10-16T05:24:53;99971.34;;;10.20;61.46
46756;BME280;32506;52.826;-1.192;2022-10-16T05:27:19;99983.91;;;10.19;61.53
46756;BME280;32506;52.826;-1.192;2022-10-16T05:29:48;99990.50;;;10.17;61.48
46756;BME280;32506;52.826;-1.192;2022-10-16T05:32:15;99993.97;;;10.17;61.63
46756;BME280;32506;52.826;-1.192;2022-10-16T05:34:41;99989.91;;;10.15;61.59
46756;BME280;32506;52.826;-1.192;2022-10-16T05:37:07;100006.97;;;10.14;61.52
46756;BME280;32506;52.826;-1.192;2022-10-16T05:39:32;100002.88;;;10.11;61.40
46756;BME280;32506;52.826;-1.192;2022-10-16T05:41:58;100017.28;;;10.10;61.56
46756;BME280;32506;52.826;-1.192;2022-10-16T05:44:23;100018.31;;;10.09;61.32
46756;BME280;32506;52.826;-1.192;2022-10-16T05:46:49;100023.06;;;10.07;61.23
46756;BME280;32506;52.826;-1.192;2022-10-16T05:49:14;100039.31;;;10.05;61.13
46756;BME280;32506;52.826;-1.192;2022-10-16T05:51:40;100038.72;;;10.03;61.03
46756;BME280;32506;52.826;-1.192;2022-10-16T05:54:07;100045.31;;;10.01;61.29
46756;BME280;32506;52.826;-1.192;2022-10-16T05:56:32;100042.66;;;10.01;61.17
46756;BME280;32506;52.826;-1.192;2022-10-16T05:58:57;100047.38;;;9.99;60.81
46756;BME280;32506;52.826;-1.192;2022-10-16T06:01:23;100049.47;;;9.97;61.06
46756;BME280;32506;52.826;-1.192;2022-10-16T06:03:50;100051.53;;;9.95;61.03
46756;BME280;32506;52.826;-1.192;2022-10-16T06:06:21;100069.63;;;9.93;60.76
46756;BME280;32506;52.826;-1.192;2022-10-16T06:08:48;100072.72;;;9.89;60.61
46756;BME280;32506;52.826;-1.192;2022-10-16T06:11:16;100084.47;;;9.88;60.43
46756;BME280;32506;52.826;-1.192;2022-10-16T06:13:42;100090.84;;;9.87;60.54
46756;BME280;32506;52.826;-1.192;2022-10-16T06:16:09;100081.63;;;9.83;60.05
46756;BME280;32506;52.826;-1.192;2022-10-16T06:18:35;100090.91;;;9.81;60.06
46756;BME280;32506;52.826;-1.192;2022-10-16T06:21:08;100088.44;;;9.79;60.11
46756;BME280;32506;52.826;-1.192;2022-10-16T06:23:34;100096.88;;;9.76;60.43
46756;BME280;32506;52.826;-1.192;2022-10-16T06:26:08;100090.97;;;9.74;60.32
46756;BME280;32506;52.826;-1.192;2022-10-16T06:28:33;100090.34;;;9.72;60.45
46756;BME280;32506;52.826;-1.192;2022-10-16T06:31:00;100099.41;;;9.71;60.75
46756;BME280;32506;52.826;-1.192;2022-10-16T06:33:25;100102.28;;;9.69;60.80
46756;BME280;32506;52.826;-1.192;2022-10-16T06:35:51;100100.84;;;9.67;60.83
46756;BME280;32506;52.826;-1.192;2022-10-16T06:38:16;100103.75;;;9.65;61.15
46756;BME280;32506;52.826;-1.192;2022-10-16T06:40:42;100118.94;;;9.65;60.92
46756;BME280;32506;52.826;-1.192;2022-10-16T06:43:08;100122.06;;;9.62;61.16
46756;BME280;32506;52.826;-1.192;2022-10-16T06:45:33;100122.25;;;9.60;61.18
46756;BME280;32506;52.826;-1.192;2022-10-16T06:47:59;100137.47;;;9.60;61.07
46756;BME280;32506;52.826;-1.192;2022-10-16T06:50:24;100135.81;;;9.58;61.36
46756;BME280;32506;52.826;-1.192;2022-10-16T06:52:50;100145.69;;;9.58;61.29
46756;BME280;32506;52.826;-1.192;2022-10-16T06:55:15;100157.38;;;9.57;61.63
46756;BME280;32506;52.826;-1.192;2022-10-16T06:57:42;100162.94;;;9.55;61.58
46756;BME280;32506;52.826;-1.192;2022-10-16T07:00:09;100160.50;;;9.54;61.61
46756;BME280;32506;52.826;-1.192;2022-10-16T07:02:34;100174.63;;;9.54;61.72
46756;BME280;32506;52.826;-1.192;2022-10-16T07:05:00;100184.50;;;9.54;61.80
46756;BME280;32506;52.826;-1.192;2022-10-16T07:07:25;100190.84;;;9.53;61.38
46756;BME280;32506;52.826;-1.192;2022-10-16T07:09:52;100197.22;;;9.52;61.47
46756;BME280;32506;52.826;-1.192;2022-10-16T07:12:17;100203.41;;;9.52;61.19
46756;BME280;32506;52.826;-1.192;2022-10-16T07:14:43;100207.09;;;9.51;61.47
46756;BME280;32506;52.826;-1.192;2022-10-16T07:17:08;100218.56;;;9.52;61.57
46756;BME280;32506;52.826;-1.192;2022-10-16T07:19:34;100218.56;;;9.52;61.57
46756;BME280;32506;52.826;-1.192;2022-10-16T07:22:00;100228.44;;;9.51;61.63
46756;BME280;32506;52.826;-1.192;2022-10-16T07:24:25;100220.44;;;9.51;61.32
46756;BME280;32506;52.826;-1.192;2022-10-16T07:26:51;100221.22;;;9.52;61.50
46756;BME280;32506;52.826;-1.192;2022-10-16T07:29:21;100228.22;;;9.53;61.46
46756;BME280;32506;52.826;-1.192;2022-10-16T07:31:48;100230.06;;;9.52;61.61
46756;BME280;32506;52.826;-1.192;2022-10-16T07:34:16;100239.72;;;9.53;61.41
46756;BME280;32506;52.826;-1.192;2022-10-16T07:36:41;100248.53;;;9.54;61.72
46756;BME280;32506;52.826;-1.192;2022-10-16T07:39:07;100245.84;;;9.54;61.91
46756;BME280;32506;52.826;-1.192;2022-10-16T07:41:33;100254.44;;;9.56;61.87
46756;BME280;32506;52.826;-1.192;2022-10-16T07:44:02;100254.25;;;9.57;61.83
46756;BME280;32506;52.826;-1.192;2022-10-16T07:46:28;100264.72;;;9.59;61.73
46756;BME280;32506;52.826;-1.192;2022-10-16T07:48:54;100262.63;;;9.61;61.57
46756;BME280;32506;52.826;-1.192;2022-10-16T07:51:22;100270.41;;;9.63;61.39
46756;BME280;32506;52.826;-1.192;2022-10-16T07:53:49;100265.94;;;9.63;61.68
46756;BME280;32506;52.826;-1.192;2022-10-16T07:56:15;100268.16;;;9.66;61.41
46756;BME280;32506;52.826;-1.192;2022-10-16T07:58:41;100270.38;;;9.69;61.44
46756;BME280;32506;52.826;-1.192;2022-10-16T08:01:09;100278.19;;;9.71;61.61
46756;BME280;32506;52.826;-1.192;2022-10-16T08:03:35;100281.47;;;9.73;60.82
46756;BME280;32506;52.826;-1.192;2022-10-16T08:06:02;100294.19;;;9.78;60.64
46756;BME280;32506;52.826;-1.192;2022-10-16T08:08:29;100299.88;;;9.81;60.50
46756;BME280;32506;52.826;-1.192;2022-10-16T08:10:55;100299.47;;;9.84;60.24
46756;BME280;32506;52.826;-1.192;2022-10-16T08:13:20;100315.63;;;9.89;60.33
46756;BME280;32506;52.826;-1.192;2022-10-16T08:15:46;100312.34;;;9.94;60.65
46756;BME280;32506;52.826;-1.192;2022-10-16T08:18:13;100311.69;;;9.99;60.87
46756;BME280;32506;52.826;-1.192;2022-10-16T08:20:39;100316.97;;;10.05;61.19
46756;BME280;32506;52.826;-1.192;2022-10-16T08:23:05;100324.13;;;10.12;61.15
46756;BME280;32506;52.826;-1.192;2022-10-16T08:25:34;100340.72;;;10.20;61.59
46756;BME280;32506;52.826;-1.192;2022-10-16T08:28:00;100331.84;;;10.27;62.30
46756;BME280;32506;52.826;-1.192;2022-10-16T08:30:25;100343.13;;;10.35;62.68
46756;BME280;32506;52.826;-1.192;2022-10-16T08:32:51;100344.69;;;10.43;63.04
46756;BME280;32506;52.826;-1.192;2022-10-16T08:35:16;100351.41;;;10.52;63.20
46756;BME280;32506;52.826;-1.192;2022-10-16T08:37:42;100356.06;;;10.64;63.26
46756;BME280;32506;52.826;-1.192;2022-10-16T08:40:20;100347.31;;;10.75;63.32
46756;BME280;32506;52.826;-1.192;2022-10-16T08:42:56;100344.72;;;10.87;63.63
46756;BME280;32506;52.826;-1.192;2022-10-16T08:46:02;100346.81;;;11.03;63.56
46756;BME280;32506;52.826;-1.192;2022-10-16T08:48:47;100343.56;;;11.20;63.60
46756;BME280;32506;52.826;-1.192;2022-10-16T08:51:20;100349.59;;;11.34;63.74
46756;BME280;32506;52.826;-1.192;2022-10-16T08:56:56;100347.56;;;11.66;63.43
46756;BME280;32506;52.826;-1.192;2022-10-16T08:59:22;100356.59;;;11.84;63.31
46756;BME280;32506;52.826;-1.192;2022-10-16T09:01:50;100361.56;;;11.99;63.06
46756;BME280;32506;52.826;-1.192;2022-10-16T09:12:54;100369.53;;;12.71;61.83
46756;BME280;32506;52.826;-1.192;2022-10-16T09:18:28;100365.00;;;13.07;61.37
46756;BME280;32506;52.826;-1.192;2022-10-16T09:21:01;100371.50;;;13.23;61.00
46756;BME280;32506;52.826;-1.192;2022-10-16T09:23:35;100382.13;;;13.42;60.94
46756;BME280;32506;52.826;-1.192;2022-10-16T09:26:02;100378.94;;;13.57;60.92
46756;BME280;32506;52.826;-1.192;2022-10-16T09:28:28;100388.69;;;13.75;60.22
46756;BME280;32506;52.826;-1.192;2022-10-16T09:30:54;100392.25;;;13.92;60.16
46756;BME280;32506;52.826;-1.192;2022-10-16T09:33:23;100409.47;;;14.08;59.85
46756;BME280;32506;52.826;-1.192;2022-10-16T09:35:51;100417.34;;;14.27;59.59
46756;BME280;32506;52.826;-1.192;2022-10-16T09:38:35;100419.03;;;14.45;59.47
46756;BME280;32506;52.826;-1.192;2022-10-16T09:41:15;100430.41;;;14.64;59.26
46756;BME280;32506;52.826;-1.192;2022-10-16T09:46:32;100437.97;;;15.01;58.52
46756;BME280;32506;52.826;-1.192;2022-10-16T09:49:21;100441.53;;;15.24;58.19
46756;BME280;32506;52.826;-1.192;2022-10-16T09:51:48;100443.63;;;15.39;57.34
46756;BME280;32506;52.826;-1.192;2022-10-16T09:54:16;100452.50;;;15.56;57.07
46756;BME280;32506;52.826;-1.192;2022-10-16T09:56:42;100453.25;;;15.74;56.82
46756;BME280;32506;52.826;-1.192;2022-10-16T09:59:13;100445.38;;;15.89;56.18
46756;BME280;32506;52.826;-1.192;2022-10-16T10:01:42;100435.34;;;16.07;55.91
46756;BME280;32506;52.826;-1.192;2022-10-16T10:04:09;100441.72;;;16.23;55.75
46756;BME280;32506;52.826;-1.192;2022-10-16T10:06:40;100449.72;;;16.40;54.98
46756;BME280;32506;52.826;-1.192;2022-10-16T10:14:24;100422.38;;;16.91;54.28
46756;BME280;32506;52.826;-1.192;2022-10-16T10:16:52;100433.28;;;17.06;54.44
46756;BME280;32506;52.826;-1.192;2022-10-16T10:19:22;100433.91;;;17.24;53.15
46756;BME280;32506;52.826;-1.192;2022-10-16T10:21:50;100436.72;;;17.39;52.82
46756;BME280;32506;52.826;-1.192;2022-10-16T10:24:17;100433.81;;;17.56;52.60
46756;BME280;32506;52.826;-1.192;2022-10-16T10:27:07;100434.47;;;17.74;52.21
46756;BME280;32506;52.826;-1.192;2022-10-16T10:29:49;100436.69;;;17.92;51.72
46756;BME280;32506;52.826;-1.192;2022-10-16T10:38:29;100426.53;;;18.72;50.99
46756;BME280;32506;52.826;-1.192;2022-10-16T10:46:14;100432.19;;;20.08;48.08
46756;BME280;32506;52.826;-1.192;2022-10-16T10:49:33;100440.56;;;20.56;47.38
46756;BME280;32506;52.826;-1.192;2022-10-16T10:57:22;100433.84;;;21.85;44.28
46756;BME280;32506;52.826;-1.192;2022-10-16T11:06:16;100429.16;;;22.29;43.70
46756;BME280;32506;52.826;-1.192;2022-10-16T11:08:50;100428.34;;;22.28;43.90
46756;BME280;32506;52.826;-1.192;2022-10-16T11:14:20;100423.13;;;22.32;44.49
46756;BME280;32506;52.826;-1.192;2022-10-16T11:16:56;100425.03;;;22.32;43.93
46756;BME280;32506;52.826;-1.192;2022-10-16T11:22:42;100448.31;;;22.43;43.69
46756;BME280;32506;52.826;-1.192;2022-10-16T11:25:16;100453.97;;;22.46;43.28
46756;BME280;32506;52.826;-1.192;2022-10-16T11:28:08;100469.66;;;22.55;42.72
46756;BME280;32506;52.826;-1.192;2022-10-16T11:31:00;100469.78;;;22.63;43.03
46756;BME280;32506;52.826;-1.192;2022-10-16T11:33:52;100473.13;;;22.74;42.70
46756;BME280;32506;52.826;-1.192;2022-10-16T11:41:43;100461.31;;;23.12;42.78
46756;BME280;32506;52.826;-1.192;2022-10-16T11:47:07;100477.06;;;23.48;42.52
46756;BME280;32506;52.826;-1.192;2022-10-16T11:49:36;100470.19;;;23.65;42.20
46756;BME280;32506;52.826;-1.192;2022-10-16T11:52:13;100477.97;;;23.85;41.87
46756;BME280;32506;52.826;-1.192;2022-10-16T11:57:47;100486.44;;;24.11;40.71
46756;BME280;32506;52.826;-1.192;2022-10-16T12:00:24;100481.16;;;24.15;40.61
46756;BME280;32506;52.826;-1.192;2022-10-16T12:03:08;100482.97;;;24.20;40.81
46756;BME280;32506;52.826;-1.192;2022-10-16T12:08:30;100494.78;;;24.29;40.29
46756;BME280;32506;52.826;-1.192;2022-10-16T12:11:20;100494.88;;;24.38;40.32
46756;BME280;32506;52.826;-1.192;2022-10-16T12:13:47;100495.25;;;24.45;40.42
46756;BME280;32506;52.826;-1.192;2022-10-16T12:18:40;100483.38;;;24.63;39.23
46756;BME280;32506;52.826;-1.192;2022-10-16T12:21:06;100486.19;;;24.72;39.00
46756;BME280;32506;52.826;-1.192;2022-10-16T12:23:36;100488.97;;;24.81;38.61
46756;BME280;32506;52.826;-1.192;2022-10-16T12:26:03;100487.88;;;24.91;38.64
46756;BME280;32506;52.826;-1.192;2022-10-16T12:28:31;100485.69;;;25.02;38.66
46756;BME280;32506;52.826;-1.192;2022-10-16T12:31:05;100482.72;;;25.12;38.72
46756;BME280;32506;52.826;-1.192;2022-10-16T12:33:33;100479.41;;;25.24;38.48
46756;BME280;32506;52.826;-1.192;2022-10-16T12:36:04;100458.25;;;25.38;38.68
46756;BME280;32506;52.826;-1.192;2022-10-16T12:38:46;100469.88;;;25.53;38.55
46756;BME280;32506;52.826;-1.192;2022-10-16T12:41:12;100475.09;;;25.72;38.05
46756;BME280;32506;52.826;-1.192;2022-10-16T12:43:48;100470.31;;;25.95;37.64
46756;BME280;32506;52.826;-1.192;2022-10-16T12:48:41;100460.56;;;26.73;36.96
46756;BME280;32506;52.826;-1.192;2022-10-16T12:51:21;100474.78;;;27.22;35.97
46756;BME280;32506;52.826;-1.192;2022-10-16T12:54:18;100465.66;;;27.78;34.85
46756;BME280;32506;52.826;-1.192;2022-10-16T13:04:58;100468.03;;;29.19;34.01
46756;BME280;32506;52.826;-1.192;2022-10-16T13:15:56;100460.13;;;28.50;34.50
46756;BME280;32506;52.826;-1.192;2022-10-16T13:21:26;100462.69;;;28.34;34.10
46756;BME280;32506;52.826;-1.192;2022-10-16T13:29:07;100461.41;;;29.69;32.37
46756;BME280;32506;52.826;-1.192;2022-10-16T13:31:37;100465.53;;;30.00;30.87
46756;BME280;32506;52.826;-1.192;2022-10-16T13:34:05;100457.06;;;30.21;29.96
46756;BME280;32506;52.826;-1.192;2022-10-16T13:36:43;100456.94;;;30.30;30.18
46756;BME280;32506;52.826;-1.192;2022-10-16T13:39:30;100461.50;;;30.38;29.41
46756;BME280;32506;52.826;-1.192;2022-10-16T13:42:10;100470.09;;;30.49;29.14
46756;BME280;32506;52.826;-1.192;2022-10-16T13:44:49;100457.59;;;30.68;29.78
46756;BME280;32506;52.826;-1.192;2022-10-16T13:47:22;100465.56;;;31.01;29.93
46756;BME280;32506;52.826;-1.192;2022-10-16T13:49:59;100471.09;;;31.49;29.07
46756;BME280;32506;52.826;-1.192;2022-10-16T13:52:25;100466.81;;;32.03;29.12
46756;BME280;32506;52.826;-1.192;2022-10-16T13:54:51;100470.88;;;32.68;27.34
46756;BME280;32506;52.826;-1.192;2022-10-16T13:57:17;100465.25;;;33.27;27.82
46756;BME280;32506;52.826;-1.192;2022-10-16T13:59:43;100459.19;;;33.71;27.10
46756;BME280;32506;52.826;-1.192;2022-10-16T14:04:47;100466.16;;;34.19;24.78
46756;BME280;32506;52.826;-1.192;2022-10-16T14:07:22;100457.50;;;34.54;23.99
46756;BME280;32506;52.826;-1.192;2022-10-16T14:09:50;100457.88;;;34.94;23.43
46756;BME280;32506;52.826;-1.192;2022-10-16T14:12:16;100456.19;;;35.27;21.36
46756;BME280;32506;52.826;-1.192;2022-10-16T14:14:45;100462.00;;;35.59;21.63
46756;BME280;32506;52.826;-1.192;2022-10-16T14:19:46;100452.34;;;36.09;20.19
46756;BME280;32506;52.826;-1.192;2022-10-16T14:22:39;100464.31;;;36.31;19.01
46756;BME280;32506;52.826;-1.192;2022-10-16T14:31:01;100444.00;;;36.09;18.87
46756;BME280;32506;52.826;-1.192;2022-10-16T14:38:34;100453.41;;;34.82;19.63
46756;BME280;32506;52.826;-1.192;2022-10-16T14:41:00;100450.81;;;34.28;20.00
46756;BME280;32506;52.826;-1.192;2022-10-16T14:46:02;100456.44;;;33.21;21.01
46756;BME280;32506;52.826;-1.192;2022-10-16T14:48:29;100453.22;;;32.73;21.54
46756;BME280;32506;52.826;-1.192;2022-10-16T14:50:55;100453.09;;;32.26;22.37
46756;BME280;32506;52.826;-1.192;2022-10-16T14:53:21;100449.84;;;31.85;22.65
46756;BME280;32506;52.826;-1.192;2022-10-16T14:55:47;100443.94;;;31.51;23.07